createdAt,value
2018-12-15T00:01:04.889Z,5.60
2018-12-15T00:03:34.145Z,10.88
2018-12-15T00:06:23.012Z,10.13
2018-12-15T00:08:52.279Z,6.25
2018-12-15T00:11:21.543Z,6.12
2018-12-15T00:13:50.796Z,10.25
2018-12-15T00:16:20.060Z,8.53
2018-12-15T00:19:08.923Z,9.33
2018-12-15T00:21:38.194Z,5.22
2018-12-15T00:24:07.440Z,7.90
2018-12-15T00:26:36.790Z,9.78
2018-12-15T00:29:06.045Z,9.90
2018-12-15T00:31:35.303Z,9.13
2018-12-15T00:34:04.546Z,5.65
2018-12-15T00:36:33.811Z,8.43
2018-12-15T00:41:52.337Z,8.65
2018-12-15T00:44:21.601Z,11.90
2018-12-15T00:47:13.949Z,7.87
2018-12-15T00:49:40.912Z,7.60
2018-12-15T00:52:10.168Z,5.58
2018-12-15T00:54:39.421Z,7.65
2018-12-15T00:57:08.691Z,5.20
2018-12-15T00:59:37.955Z,10.82
2018-12-15T01:02:07.218Z,7.42
2018-12-15T01:04:36.470Z,9.48
2018-12-15T01:07:05.732Z,9.13
2018-12-15T01:09:34.981Z,5.90
2018-12-15T01:12:04.246Z,6.40
2018-12-15T01:14:33.512Z,11.10
2018-12-15T01:17:02.805Z,8.80
2018-12-15T01:19:32.060Z,7.25
2018-12-15T01:22:01.325Z,9.63
2018-12-15T01:24:30.564Z,6.35
2018-12-15T01:26:59.829Z,12.78
2018-12-15T01:29:29.083Z,9.03
2018-12-15T01:31:58.358Z,8.98
2018-12-15T01:34:27.604Z,6.42
2018-12-15T01:36:56.872Z,2.62
2018-12-15T01:39:26.129Z,4.50
2018-12-15T01:41:55.381Z,5.80
2018-12-15T01:44:24.638Z,5.65
2018-12-15T01:46:53.911Z,7.65
2018-12-15T01:49:23.176Z,7.50
2018-12-15T01:51:52.489Z,7.65
2018-12-15T01:54:21.743Z,6.70
2018-12-15T01:56:51.017Z,7.97
2018-12-15T01:59:20.274Z,5.65
2018-12-15T02:01:49.539Z,6.83
2018-12-15T02:04:18.796Z,8.25
2018-12-15T02:06:48.063Z,4.85
2018-12-15T02:09:17.309Z,7.47
2018-12-15T02:11:46.579Z,6.70
2018-12-15T02:14:15.828Z,7.37
2018-12-15T02:16:45.089Z,9.30
2018-12-15T02:19:14.338Z,6.10
2018-12-15T02:21:43.607Z,7.55
2018-12-15T02:24:12.864Z,12.95
2018-12-15T02:27:01.722Z,7.10
2018-12-15T02:29:30.983Z,11.38
2018-12-15T02:32:00.253Z,9.15
2018-12-15T02:34:29.498Z,6.08
2018-12-15T02:36:58.762Z,5.80
2018-12-15T02:39:28.020Z,6.60
2018-12-15T02:41:57.285Z,7.78
2018-12-15T02:44:26.550Z,7.33
2018-12-15T02:46:55.808Z,5.60
2018-12-15T02:49:25.052Z,5.10
2018-12-15T02:51:54.315Z,8.35
2018-12-15T02:54:23.571Z,7.92
2018-12-15T02:56:52.844Z,9.68
2018-12-15T02:59:22.108Z,6.25
2018-12-15T03:01:51.364Z,6.62
2018-12-15T03:04:20.622Z,6.08
2018-12-15T03:06:49.872Z,5.47
2018-12-15T03:09:19.134Z,7.67
2018-12-15T03:11:48.392Z,7.05
2018-12-15T03:14:17.697Z,9.20
2018-12-15T03:17:08.823Z,8.28
2018-12-15T03:19:38.090Z,8.98
2018-12-15T03:22:07.356Z,10.43
2018-12-15T03:24:36.615Z,6.00
2018-12-15T03:27:05.867Z,8.40
2018-12-15T03:29:35.136Z,10.98
2018-12-15T03:32:04.391Z,5.42
2018-12-15T03:34:33.651Z,7.97
2018-12-15T03:37:02.978Z,9.45
2018-12-15T03:39:32.243Z,9.35
2018-12-15T03:42:01.496Z,6.53
2018-12-15T03:44:30.775Z,7.90
2018-12-15T03:47:00.023Z,6.28
2018-12-15T03:49:29.307Z,9.40
2018-12-15T03:51:58.551Z,9.88
2018-12-15T03:54:27.832Z,7.03
2018-12-15T03:56:57.129Z,11.97
2018-12-15T04:02:02.042Z,10.78
2018-12-15T04:07:07.006Z,10.00
2018-12-15T04:09:36.273Z,10.65
2018-12-15T04:12:05.523Z,12.33
2018-12-15T04:14:34.801Z,10.05
2018-12-15T04:17:04.121Z,12.88
2018-12-15T04:19:33.380Z,7.65
2018-12-15T04:22:21.718Z,11.08
2018-12-15T04:24:50.987Z,7.80
2018-12-15T04:27:20.255Z,11.15
2018-12-15T04:29:49.518Z,7.28
2018-12-15T04:32:18.802Z,13.93
2018-12-15T04:34:48.046Z,10.53
2018-12-15T04:37:17.304Z,10.70
2018-12-15T04:39:46.578Z,10.88
2018-12-15T04:42:15.827Z,8.03
2018-12-15T04:44:45.102Z,9.55
2018-12-15T04:50:03.651Z,9.03
2018-12-15T04:52:32.892Z,12.98
2018-12-15T04:55:02.211Z,12.73
2018-12-15T04:57:31.430Z,9.98
2018-12-15T05:00:00.704Z,10.23
2018-12-15T05:02:29.969Z,14.47
2018-12-15T05:05:18.293Z,11.85
2018-12-15T05:07:47.559Z,10.20
2018-12-15T05:10:16.830Z,14.68
2018-12-15T05:12:46.087Z,14.47
2018-12-15T05:15:15.373Z,11.70
2018-12-15T05:17:44.632Z,11.48
2018-12-15T05:20:13.913Z,13.35
2018-12-15T05:23:02.770Z,13.05
2018-12-15T05:25:32.044Z,17.30
2018-12-15T05:28:01.313Z,13.98
2018-12-15T05:30:30.583Z,14.65
2018-12-15T05:32:59.852Z,12.53
2018-12-15T05:35:29.124Z,13.25
2018-12-15T05:37:58.379Z,10.58
2018-12-15T05:40:27.659Z,21.40
2018-12-15T05:42:56.916Z,17.32
2018-12-15T05:45:26.187Z,9.15
2018-12-15T05:47:55.452Z,14.05
2018-12-15T05:50:24.708Z,13.25
2018-12-15T05:52:53.984Z,12.98
2018-12-15T05:55:23.248Z,15.68
2018-12-15T05:57:52.518Z,11.38
2018-12-15T06:00:21.781Z,13.18
2018-12-15T06:02:51.058Z,13.15
2018-12-15T06:08:09.603Z,15.43
2018-12-15T06:10:38.864Z,17.00
2018-12-15T06:13:08.137Z,12.33
2018-12-15T06:15:37.389Z,11.35
2018-12-15T06:18:06.654Z,14.83
2018-12-15T06:20:35.916Z,11.97
2018-12-15T06:23:05.186Z,17.82
2018-12-15T06:25:54.316Z,14.90
2018-12-15T06:28:23.592Z,13.83
2018-12-15T06:33:41.225Z,15.58
2018-12-15T06:36:10.499Z,11.93
2018-12-15T06:38:39.776Z,13.98
2018-12-15T06:41:09.033Z,16.60
2018-12-15T06:46:14.673Z,11.78
2018-12-15T06:48:43.943Z,8.85
2018-12-15T06:51:13.208Z,12.55
2018-12-15T06:53:42.482Z,13.30
2018-12-15T06:56:11.752Z,10.98
2018-12-15T06:58:41.025Z,10.35
2018-12-15T07:01:10.276Z,17.95
2018-12-15T07:03:39.540Z,11.03
2018-12-15T07:06:08.795Z,19.02
2018-12-15T07:11:12.494Z,10.95
2018-12-15T07:13:41.763Z,16.23
2018-12-15T07:16:30.901Z,12.35
2018-12-15T07:19:00.189Z,11.85
2018-12-15T07:21:29.441Z,17.90
2018-12-15T07:23:58.716Z,11.12
2018-12-15T07:26:27.981Z,10.03
2018-12-15T07:28:57.255Z,11.83
2018-12-15T07:31:26.508Z,21.23
2018-12-15T07:33:55.774Z,16.37
2018-12-15T07:36:25.036Z,10.05
2018-12-15T07:38:54.342Z,11.85
2018-12-15T07:41:23.601Z,17.85
2018-12-15T07:43:52.871Z,11.78
2018-12-15T07:46:22.134Z,11.50
2018-12-15T07:48:51.625Z,14.10
2018-12-15T07:51:21.570Z,15.48
2018-12-15T07:53:50.853Z,12.68
2018-12-15T07:59:09.393Z,14.68
2018-12-15T08:01:38.661Z,12.93
2018-12-15T08:04:07.937Z,11.60
2018-12-15T08:06:37.204Z,17.02
2018-12-15T08:09:07.696Z,17.07
2018-12-15T08:11:55.685Z,14.47
2018-12-15T08:14:25.039Z,9.03
2018-12-15T08:16:54.299Z,14.87
2018-12-15T08:19:23.569Z,11.90
2018-12-15T08:21:52.854Z,24.27
2018-12-15T08:24:22.125Z,14.90
2018-12-15T08:26:51.397Z,18.40
2018-12-15T08:29:39.721Z,14.87
2018-12-15T08:32:08.992Z,14.93
2018-12-15T08:34:38.265Z,20.57
2018-12-15T08:37:07.534Z,14.60
2018-12-15T08:39:36.813Z,19.87
2018-12-15T08:42:06.070Z,10.05
2018-12-15T08:44:35.348Z,12.95
2018-12-15T08:47:04.699Z,14.78
2018-12-15T08:49:33.975Z,11.65
2018-12-15T08:52:03.252Z,17.70
2018-12-15T08:54:32.529Z,23.70
2018-12-15T08:57:01.785Z,17.27
2018-12-15T08:59:31.069Z,18.30
2018-12-15T09:02:00.338Z,10.58
2018-12-15T09:04:29.610Z,13.98
2018-12-15T09:06:58.864Z,14.03
2018-12-15T09:09:28.146Z,13.32
2018-12-15T09:11:57.411Z,11.97
2018-12-15T09:14:26.693Z,14.18
2018-12-15T09:16:55.938Z,16.62
2018-12-15T09:19:25.251Z,12.73
2018-12-15T09:21:54.501Z,14.10
2018-12-15T09:24:23.782Z,14.65
2018-12-15T09:26:53.069Z,14.98
2018-12-15T09:29:22.328Z,15.00
2018-12-15T09:31:51.608Z,16.52
2018-12-15T09:34:20.873Z,16.65
2018-12-15T09:36:50.169Z,17.85
2018-12-15T09:39:19.430Z,16.52
2018-12-15T09:41:48.694Z,10.28
2018-12-15T09:44:17.956Z,13.98
2018-12-15T09:46:47.247Z,13.40
2018-12-15T09:49:17.937Z,13.35
2018-12-15T09:51:46.705Z,10.13
2018-12-15T09:54:15.966Z,13.22
2018-12-15T09:56:45.243Z,9.33
2018-12-15T09:59:14.493Z,9.38
2018-12-15T10:01:43.764Z,7.70
2018-12-15T10:04:13.043Z,11.73
2018-12-15T10:06:43.780Z,13.90
2018-12-15T10:09:14.401Z,13.43
2018-12-15T10:11:45.352Z,10.00
2018-12-15T10:14:15.531Z,9.93
2018-12-15T10:16:45.765Z,13.13
2018-12-15T10:19:15.888Z,12.88
2018-12-15T10:21:46.062Z,12.70
2018-12-15T10:24:16.241Z,12.40
2018-12-15T10:26:46.380Z,10.10
2018-12-15T10:29:35.064Z,12.15
2018-12-15T10:32:42.448Z,8.70
2018-12-15T10:35:12.576Z,11.53
2018-12-15T10:37:42.855Z,9.13
2018-12-15T10:40:12.931Z,13.13
2018-12-15T10:42:43.023Z,10.20
2018-12-15T10:45:13.051Z,16.15
2018-12-15T10:47:43.221Z,16.65
2018-12-15T10:50:32.190Z,11.73
2018-12-15T10:55:44.690Z,11.63
2018-12-15T10:58:34.509Z,10.05
2018-12-15T11:01:24.325Z,11.10
2018-12-15T11:04:00.666Z,6.78
2018-12-15T11:06:45.247Z,9.23
2018-12-15T11:09:15.380Z,9.30
2018-12-15T11:11:45.833Z,8.60
2018-12-15T11:14:16.058Z,7.47
2018-12-15T11:16:46.036Z,11.15
2018-12-15T11:19:15.984Z,11.20
2018-12-15T11:21:46.375Z,10.60
2018-12-15T11:24:16.493Z,7.42
2018-12-15T11:26:46.599Z,6.58
2018-12-15T11:29:16.810Z,8.80
2018-12-15T11:31:47.224Z,8.50
2018-12-15T11:34:17.670Z,7.87
2018-12-15T11:36:47.729Z,10.05
2018-12-15T11:39:18.072Z,5.05
2018-12-15T11:41:48.247Z,7.00
2018-12-15T11:44:18.488Z,5.25
2018-12-15T11:46:48.607Z,5.28
2018-12-15T11:49:18.702Z,9.30
2018-12-15T11:51:48.513Z,6.78
2018-12-15T11:54:24.951Z,8.23
2018-12-15T11:56:54.204Z,7.67
2018-12-15T11:59:23.473Z,9.15
2018-12-15T12:01:53.200Z,9.93
2018-12-15T12:04:22.913Z,8.35
2018-12-15T12:06:52.177Z,6.67
2018-12-15T12:09:21.444Z,5.08
2018-12-15T12:11:50.728Z,7.70
2018-12-15T12:14:19.998Z,6.42
2018-12-15T12:16:49.255Z,8.28
2018-12-15T12:19:18.528Z,7.00
2018-12-15T12:21:47.779Z,7.22
2018-12-15T12:24:17.042Z,10.18
2018-12-15T12:26:46.297Z,6.45
2018-12-15T12:29:15.569Z,9.43
2018-12-15T12:31:44.821Z,8.28
2018-12-15T12:34:14.112Z,9.75
2018-12-15T12:36:43.363Z,9.25
2018-12-15T12:39:32.239Z,10.20
2018-12-15T12:42:01.506Z,4.45
2018-12-15T12:44:30.770Z,5.95
2018-12-15T12:47:00.029Z,4.62
2018-12-15T12:49:29.301Z,4.40
2018-12-15T12:51:58.543Z,3.95
2018-12-15T12:54:27.805Z,4.47
2018-12-15T12:56:57.127Z,7.58
2018-12-15T12:59:26.393Z,5.67
2018-12-15T13:01:55.650Z,7.12
2018-12-15T13:04:24.920Z,8.43
2018-12-15T13:06:54.190Z,4.40
2018-12-15T13:09:23.473Z,7.20
2018-12-15T13:11:52.727Z,7.25
2018-12-15T13:14:21.986Z,3.98
2018-12-15T13:16:51.250Z,5.58
2018-12-15T13:19:20.505Z,5.17
2018-12-15T13:21:49.779Z,4.83
2018-12-15T13:24:19.045Z,6.75
2018-12-15T13:26:48.322Z,4.40
2018-12-15T13:29:17.577Z,4.03
2018-12-15T13:31:46.848Z,4.08
2018-12-15T13:34:16.093Z,4.30
2018-12-15T13:36:45.375Z,2.98
2018-12-15T13:39:14.640Z,3.30
2018-12-15T13:41:43.912Z,3.47
2018-12-15T13:44:13.177Z,3.60
2018-12-15T13:46:42.447Z,5.33
2018-12-15T13:49:11.701Z,4.60
2018-12-15T13:51:40.986Z,6.97
2018-12-15T13:54:10.253Z,3.37
2018-12-15T13:56:39.521Z,3.40
2018-12-15T13:59:08.788Z,3.25
2018-12-15T14:01:38.056Z,2.90
2018-12-15T14:04:07.306Z,2.80
2018-12-15T14:06:36.568Z,2.70
2018-12-15T14:09:08.325Z,4.10
2018-12-15T14:11:37.607Z,2.90
2018-12-15T14:14:06.872Z,5.78
2018-12-15T14:16:36.139Z,4.17
2018-12-15T14:19:05.392Z,8.10
2018-12-15T14:21:34.648Z,6.80
2018-12-15T14:24:03.932Z,4.65
2018-12-15T14:26:33.211Z,5.70
2018-12-15T14:29:02.482Z,4.67
2018-12-15T14:31:31.751Z,3.60
2018-12-15T14:34:01.024Z,6.17
2018-12-15T14:36:30.293Z,4.50
2018-12-15T14:38:59.557Z,3.55
2018-12-15T14:41:28.897Z,5.40
2018-12-15T14:43:58.136Z,5.92
2018-12-15T14:46:27.408Z,9.20
2018-12-15T14:48:56.679Z,5.70
2018-12-15T14:51:25.972Z,4.35
2018-12-15T14:53:55.218Z,4.25
2018-12-15T14:56:24.501Z,3.47
2018-12-15T14:58:53.769Z,5.35
2018-12-15T15:01:23.061Z,5.33
2018-12-15T15:03:52.342Z,7.05
2018-12-15T15:06:21.609Z,4.55
2018-12-15T15:08:50.893Z,3.83
2018-12-15T15:11:20.139Z,3.35
2018-12-15T15:13:49.407Z,4.35
2018-12-15T15:16:18.660Z,7.35
2018-12-15T15:18:47.932Z,4.00
2018-12-15T15:21:17.176Z,5.00
2018-12-15T15:23:46.459Z,4.62
2018-12-15T15:26:15.714Z,5.15
2018-12-15T15:28:45.032Z,4.70
2018-12-15T15:31:14.237Z,7.78
2018-12-15T15:33:43.558Z,5.47
2018-12-15T15:36:12.951Z,8.65
2018-12-15T15:38:42.654Z,5.67
2018-12-15T15:41:12.200Z,5.30
2018-12-15T15:43:41.671Z,5.50
2018-12-15T15:46:11.162Z,6.03
2018-12-15T15:48:40.752Z,6.55
2018-12-15T15:51:10.192Z,5.05
2018-12-15T15:53:39.701Z,7.28
2018-12-15T15:56:09.171Z,6.95
2018-12-15T15:58:38.738Z,6.45
2018-12-15T16:01:08.184Z,7.72
2018-12-15T16:03:37.612Z,5.10
2018-12-15T16:06:07.026Z,9.28
2018-12-15T16:08:36.589Z,11.68
2018-12-15T16:11:05.934Z,5.92
2018-12-15T16:13:35.193Z,6.55
2018-12-15T16:16:24.570Z,5.45
2018-12-15T16:18:54.239Z,7.60
2018-12-15T16:21:23.586Z,7.95
2018-12-15T16:23:52.867Z,7.30
2018-12-15T16:26:22.118Z,7.67
2018-12-15T16:28:51.379Z,4.35
2018-12-15T16:31:20.629Z,9.28
2018-12-15T16:34:08.961Z,7.12
2018-12-15T16:36:38.281Z,6.47
2018-12-15T16:39:08.722Z,4.85
2018-12-15T16:41:42.190Z,4.50
2018-12-15T16:44:08.142Z,7.95
2018-12-15T16:46:37.403Z,10.10
2018-12-15T16:49:06.681Z,7.87
2018-12-15T16:51:35.931Z,7.80
2018-12-15T16:54:05.196Z,3.40
2018-12-15T16:56:34.456Z,5.92
2018-12-15T16:59:03.757Z,6.53
2018-12-15T17:01:33.034Z,7.55
2018-12-15T17:04:02.308Z,7.10
2018-12-15T17:06:31.598Z,7.67
2018-12-15T17:09:00.873Z,6.30
2018-12-15T17:11:30.128Z,4.70
2018-12-15T17:13:59.395Z,6.53
2018-12-15T17:16:28.642Z,9.65
2018-12-15T17:18:57.911Z,8.98
2018-12-15T17:21:27.166Z,9.30
2018-12-15T17:23:56.419Z,7.25
2018-12-15T17:26:25.682Z,7.22
2018-12-15T17:28:54.942Z,9.65
2018-12-15T17:31:43.259Z,6.62
2018-12-15T17:34:12.545Z,7.05
2018-12-15T17:36:41.804Z,4.15
2018-12-15T17:42:00.314Z,9.90
2018-12-15T17:44:29.575Z,7.92
2018-12-15T17:46:58.848Z,12.58
2018-12-15T17:49:28.104Z,10.10
2018-12-15T17:52:17.234Z,8.90
2018-12-15T17:54:46.509Z,7.35
2018-12-15T17:57:15.776Z,7.60
2018-12-15T17:59:45.033Z,6.50
2018-12-15T18:02:14.348Z,11.43
2018-12-15T18:04:43.609Z,6.72
2018-12-15T18:12:22.770Z,10.95
2018-12-15T18:14:52.020Z,7.97
2018-12-15T18:17:21.282Z,7.53
2018-12-15T18:19:50.526Z,8.55
2018-12-15T18:22:19.801Z,13.93
2018-12-15T18:24:49.082Z,14.98
2018-12-15T18:27:18.351Z,9.18
2018-12-15T18:30:07.203Z,8.05
2018-12-15T18:32:55.549Z,7.35
2018-12-15T18:35:24.811Z,7.47
2018-12-15T18:37:54.065Z,6.47
2018-12-15T18:40:23.335Z,8.15
2018-12-15T18:42:52.598Z,7.65
2018-12-15T18:45:21.859Z,6.28
2018-12-15T18:47:51.126Z,11.88
2018-12-15T18:50:20.391Z,6.28
2018-12-15T18:52:49.659Z,10.15
2018-12-15T18:55:18.916Z,6.53
2018-12-15T18:57:48.178Z,6.65
2018-12-15T19:00:17.434Z,6.53
2018-12-15T19:02:46.710Z,5.17
2018-12-15T19:08:04.354Z,9.70
2018-12-15T19:10:33.668Z,8.25
2018-12-15T19:13:02.869Z,4.42
2018-12-15T19:15:32.110Z,8.48
2018-12-15T19:18:01.373Z,4.58
2018-12-15T19:20:30.624Z,7.33
2018-12-15T19:22:59.885Z,6.65
2018-12-15T19:25:29.136Z,7.47
2018-12-15T19:27:58.394Z,8.05
2018-12-15T19:30:27.651Z,6.25
2018-12-15T19:32:56.912Z,7.97
2018-12-15T19:35:26.166Z,7.83
2018-12-15T19:37:55.426Z,6.75
2018-12-15T19:40:24.674Z,2.45
2018-12-15T19:42:53.938Z,4.95
2018-12-15T19:45:23.186Z,3.50
2018-12-15T19:47:52.452Z,4.35
2018-12-15T19:50:41.571Z,3.92
2018-12-15T19:53:10.860Z,6.62
2018-12-15T19:55:40.118Z,5.50
2018-12-15T19:58:09.374Z,4.25
2018-12-15T20:00:38.631Z,5.33
2018-12-15T20:03:07.897Z,6.78
2018-12-15T20:08:25.542Z,6.03
2018-12-15T20:13:43.183Z,5.10
2018-12-15T20:16:32.051Z,3.60
2018-12-15T20:19:01.305Z,6.33
2018-12-15T20:21:36.000Z,6.37
2018-12-15T20:24:00.732Z,4.08
2018-12-15T20:26:29.990Z,2.60
2018-12-15T20:28:59.245Z,2.60
2018-12-15T20:31:28.507Z,4.75
2018-12-15T20:33:57.782Z,5.80
2018-12-15T20:36:27.038Z,3.15
2018-12-15T20:38:56.298Z,5.45
2018-12-15T20:41:25.548Z,4.85
2018-12-15T20:43:54.814Z,3.47
2018-12-15T20:46:24.207Z,6.42
2018-12-15T20:48:53.472Z,7.17
2018-12-15T20:51:22.728Z,6.15
2018-12-15T20:53:51.991Z,4.70
2018-12-15T20:56:21.238Z,3.15
2018-12-15T20:58:50.562Z,6.50
2018-12-15T21:04:09.025Z,7.85
2018-12-15T21:06:38.280Z,5.35
2018-12-15T21:09:08.811Z,6.60
2018-12-15T21:14:26.442Z,5.97
2018-12-15T21:16:55.717Z,5.83
2018-12-15T21:22:13.363Z,4.83
2018-12-15T21:27:30.997Z,6.60
2018-12-15T21:30:00.245Z,5.15
2018-12-15T21:35:04.514Z,4.92
2018-12-15T21:37:33.782Z,6.20
2018-12-15T21:40:03.030Z,8.00
2018-12-15T21:45:06.796Z,6.65
2018-12-15T21:47:36.067Z,4.30
2018-12-15T21:50:06.067Z,5.58
2018-12-15T21:52:35.338Z,5.47
2018-12-15T21:55:04.594Z,6.87
2018-12-15T21:57:33.853Z,6.53
2018-12-15T22:00:03.199Z,7.00
2018-12-15T22:02:32.496Z,5.50
2018-12-15T22:05:01.747Z,4.65
2018-12-15T22:07:30.998Z,6.28
2018-12-15T22:10:00.266Z,6.10
2018-12-15T22:12:29.516Z,6.47
2018-12-15T22:14:58.783Z,4.97
2018-12-15T22:20:16.443Z,7.25
2018-12-15T22:22:45.772Z,6.75
2018-12-15T22:25:15.065Z,6.37
2018-12-15T22:27:44.320Z,5.03
2018-12-15T22:30:13.621Z,7.35
2018-12-15T22:35:31.275Z,5.12
2018-12-15T22:40:35.800Z,5.50
2018-12-15T22:43:05.065Z,9.30
2018-12-15T22:48:22.694Z,5.78
2018-12-15T22:53:40.362Z,11.55
2018-12-15T22:56:09.620Z,10.98
2018-12-15T22:58:38.883Z,5.40
2018-12-15T23:01:26.867Z,6.50
2018-12-15T23:03:56.135Z,8.00
2018-12-15T23:06:25.394Z,8.68
2018-12-15T23:08:54.669Z,7.62
2018-12-15T23:11:23.926Z,10.53
2018-12-15T23:13:53.194Z,6.80
2018-12-15T23:16:22.444Z,11.68
2018-12-15T23:18:51.707Z,6.70
2018-12-15T23:21:20.967Z,5.17
2018-12-15T23:23:50.241Z,7.97
2018-12-15T23:26:19.495Z,9.48
2018-12-15T23:28:48.759Z,6.45
2018-12-15T23:31:18.018Z,6.70
2018-12-15T23:33:47.291Z,11.35
2018-12-15T23:36:16.545Z,11.30
2018-12-15T23:38:45.812Z,6.75
2018-12-15T23:41:15.081Z,7.35
2018-12-15T23:43:44.359Z,11.00
2018-12-15T23:46:13.616Z,7.10
2018-12-15T23:48:42.862Z,9.65
2018-12-15T23:51:12.142Z,10.20
2018-12-15T23:53:41.389Z,7.10
2018-12-15T23:56:10.654Z,9.48
2018-12-15T23:58:39.940Z,10.53
